Time;durP1;ratioP1;P1;durP2;ratioP2;P2;SDS_P1;SDS_P2;PMS_P1;PMS_P2;Temp;Humidity;BMP_temperature;BMP_pressure;BME280_temperature;BME280_humidity;BME280_pressure;Samples;Min_cycle;Max_cycle;Signal;HPM_P1;HPM_P2
2021/06/20 00:00:27;;;;;;;25.30;19.20;;;16.30;99.90;;;;;;5102441;28;20413;-81
2021/06/20 00:02:55;;;;;;;25.30;18.97;;;16.30;99.90;;;;;;5104261;28;20203;-80
2021/06/20 00:05:26;;;;;;;23.75;17.63;;;16.30;99.90;;;;;;5104831;28;20277;-80
2021/06/20 00:07:53;;;;;;;23.37;16.87;;;16.20;99.90;;;;;;5104449;28;20192;-78
2021/06/20 00:10:23;;;;;;;22.48;16.10;;;16.20;99.90;;;;;;5096941;28;20211;-81
2021/06/20 00:12:50;;;;;;;26.40;15.13;;;16.20;99.90;;;;;;5087289;28;20201;-82
2021/06/20 00:15:20;;;;;;;17.85;14.05;;;16.10;99.90;;;;;;5100554;27;20291;-81
2021/06/20 00:17:47;;;;;;;14.43;11.87;;;16.00;99.90;;;;;;5101538;28;20240;-79
2021/06/20 00:20:17;;;;;;;16.77;12.03;;;16.00;99.90;;;;;;5087593;28;20224;-82
2021/06/20 00:22:44;;;;;;;13.60;10.88;;;16.00;99.90;;;;;;5105638;28;20211;-81
2021/06/20 00:25:11;;;;;;;11.13;9.63;;;16.00;99.90;;;;;;5105757;28;20192;-77
2021/06/20 00:27:39;;;;;;;11.47;7.73;;;15.90;99.90;;;;;;5105873;28;20215;-78
2021/06/20 00:30:08;;;;;;;11.00;8.80;;;15.90;99.90;;;;;;5094927;28;20211;-76
2021/06/20 00:32:35;;;;;;;10.17;8.13;;;15.90;99.90;;;;;;5085071;28;20200;-79
2021/06/20 00:35:03;;;;;;;14.67;9.93;;;15.90;99.90;;;;;;5084444;28;20207;-79
2021/06/20 00:37:30;;;;;;;11.40;10.07;;;15.80;99.90;;;;;;5096420;22;20235;-80
2021/06/20 00:39:57;;;;;;;12.60;9.80;;;15.80;99.90;;;;;;5106041;28;20219;-79
2021/06/20 00:42:23;;;;;;;13.23;10.10;;;15.80;99.90;;;;;;5104593;28;20210;-78
2021/06/20 00:44:52;;;;;;;11.53;9.77;;;15.80;99.90;;;;;;5109170;27;20214;-77
2021/06/20 00:47:20;;;;;;;11.87;9.07;;;15.80;99.90;;;;;;5125941;27;20202;-78
2021/06/20 00:49:47;;;;;;;10.60;7.97;;;15.80;99.90;;;;;;5110313;27;20626;-79
2021/06/20 00:52:14;;;;;;;10.53;7.20;;;15.70;99.90;;;;;;5104769;28;20226;-77
2021/06/20 00:54:46;;;;;;;12.17;8.57;;;15.70;99.90;;;;;;5105390;28;20199;-78
2021/06/20 00:57:15;;;;;;;10.67;8.23;;;15.70;99.90;;;;;;5091198;28;20200;-78
2021/06/20 00:59:43;;;;;;;11.93;8.43;;;15.70;99.90;;;;;;5084587;28;20291;-77
2021/06/20 01:02:12;;;;;;;10.50;8.23;;;15.60;99.90;;;;;;5084359;28;20213;-78
2021/06/20 01:04:39;;;;;;;9.97;8.30;;;15.60;99.90;;;;;;5084168;28;20227;-77
2021/06/20 01:07:06;;;;;;;11.20;9.10;;;15.60;99.90;;;;;;5099979;28;20196;-77
2021/06/20 01:09:33;;;;;;;11.60;8.13;;;15.60;99.90;;;;;;5104679;28;20211;-79
2021/06/20 01:12:01;;;;;;;10.53;8.40;;;15.60;99.90;;;;;;5104773;28;20632;-77
2021/06/20 01:14:28;;;;;;;9.27;7.33;;;15.60;99.90;;;;;;5085728;28;20205;-83
2021/06/20 01:16:56;;;;;;;11.07;8.20;;;15.70;99.90;;;;;;5084029;28;20199;-81
2021/06/20 01:19:24;;;;;;;11.13;7.63;;;15.60;99.90;;;;;;5084375;28;20200;-82
2021/06/20 01:21:51;;;;;;;7.70;6.53;;;15.60;99.90;;;;;;5084507;28;20224;-80
2021/06/20 01:24:19;;;;;;;8.00;6.60;;;15.60;99.90;;;;;;5084470;28;20197;-80
2021/06/20 01:26:47;;;;;;;7.33;5.93;;;15.70;99.90;;;;;;5083447;28;20189;-80
2021/06/20 01:29:16;;;;;;;7.03;5.87;;;15.60;99.90;;;;;;5083441;28;20623;-78
2021/06/20 01:31:49;;;;;;;6.57;5.80;;;15.60;99.90;;;;;;5084060;28;20200;-79
2021/06/20 01:34:16;;;;;;;6.80;6.10;;;15.60;99.90;;;;;;5083639;28;20911;-78
2021/06/20 01:36:44;;;;;;;7.07;6.20;;;15.60;99.90;;;;;;5100293;28;20261;-79
2021/06/20 01:39:12;;;;;;;5.53;5.00;;;15.60;99.90;;;;;;5104083;28;20236;-77
2021/06/20 01:41:40;;;;;;;6.43;5.00;;;15.60;99.90;;;;;;5105295;28;20235;-80
2021/06/20 01:44:07;;;;;;;7.00;5.50;;;15.60;99.90;;;;;;5096420;28;20204;-80
2021/06/20 01:46:34;;;;;;;7.13;5.63;;;15.60;99.90;;;;;;5084029;28;20211;-81
2021/06/20 01:49:01;;;;;;;5.13;4.63;;;15.60;99.90;;;;;;5100296;28;20207;-82
2021/06/20 01:51:28;;;;;;;4.57;4.00;;;15.60;99.90;;;;;;5105280;28;20196;-82
2021/06/20 01:53:58;;;;;;;3.93;3.53;;;15.60;99.90;;;;;;5104467;28;20204;-80
2021/06/20 01:56:27;;;;;;;5.97;3.50;;;15.60;99.90;;;;;;5106704;28;20620;-80
2021/06/20 01:58:56;;;;;;;3.37;3.07;;;15.70;99.90;;;;;;5105882;28;20184;-82
2021/06/20 02:01:23;;;;;;;3.57;3.20;;;15.60;99.90;;;;;;5105070;28;20500;-81
2021/06/20 02:03:49;;;;;;;2.73;2.53;;;15.70;99.90;;;;;;5092205;28;20603;-83
2021/06/20 02:06:16;;;;;;;3.43;2.50;;;15.70;99.90;;;;;;5085796;28;20612;-77
2021/06/20 02:08:43;;;;;;;3.23;2.93;;;15.70;99.90;;;;;;5105237;28;20211;-78
2021/06/20 02:11:11;;;;;;;3.35;2.78;;;15.70;99.90;;;;;;5105954;28;20200;-79
2021/06/20 02:13:38;;;;;;;2.50;2.20;;;15.70;99.90;;;;;;5104362;28;20195;-82
2021/06/20 02:16:06;;;;;;;4.97;2.53;;;15.70;99.90;;;;;;5104922;28;20901;-78
2021/06/20 02:18:33;;;;;;;3.60;1.90;;;15.70;99.90;;;;;;5105179;28;20291;-81
2021/06/20 02:21:00;;;;;;;2.27;1.67;;;15.80;99.90;;;;;;5108218;28;20227;-80
2021/06/20 02:23:27;;;;;;;2.53;1.70;;;15.70;99.90;;;;;;5095607;28;20201;-79
2021/06/20 02:25:53;;;;;;;2.47;1.93;;;15.70;99.90;;;;;;5094954;28;20196;-78
2021/06/20 02:28:20;;;;;;;4.20;2.00;;;15.70;99.90;;;;;;5107278;28;20192;-81
2021/06/20 02:30:48;;;;;;;3.53;1.80;;;15.60;99.90;;;;;;5108845;28;20203;-81
2021/06/20 02:33:17;;;;;;;2.23;1.57;;;15.70;99.90;;;;;;5108483;28;20207;-80
2021/06/20 02:35:44;;;;;;;2.73;1.83;;;15.60;99.90;;;;;;5107360;28;20192;-81
2021/06/20 02:38:11;;;;;;;3.10;1.67;;;15.60;99.90;;;;;;5091235;28;20264;-82
2021/06/20 02:40:37;;;;;;;3.27;1.73;;;15.60;99.90;;;;;;5090022;28;20224;-80
2021/06/20 02:43:04;;;;;;;3.33;1.60;;;15.50;99.90;;;;;;5102738;28;20216;-84
2021/06/20 02:45:31;;;;;;;1.53;1.13;;;15.50;99.90;;;;;;5111186;28;20204;-83
2021/06/20 02:47:59;;;;;;;2.10;1.30;;;15.50;99.90;;;;;;5110395;28;20192;-83
2021/06/20 02:50:29;;;;;;;2.30;1.40;;;15.50;99.90;;;;;;5109816;28;20200;-81
2021/06/20 02:52:55;;;;;;;2.23;1.27;;;15.40;99.90;;;;;;5110593;28;20243;-83
2021/06/20 02:55:22;;;;;;;1.67;1.27;;;15.40;99.90;;;;;;5097803;28;20228;-85
2021/06/20 02:57:50;;;;;;;2.40;1.10;;;15.40;99.90;;;;;;5090142;28;20215;-80
2021/06/20 03:00:17;;;;;;;2.27;1.27;;;15.40;99.90;;;;;;5090171;28;20193;-82
2021/06/20 03:02:44;;;;;;;1.30;1.17;;;15.30;99.90;;;;;;5089466;28;20291;-82
2021/06/20 03:05:12;;;;;;;1.33;1.20;;;15.30;99.90;;;;;;5089721;28;20205;-84
2021/06/20 03:07:41;;;;;;;2.17;1.00;;;15.30;99.90;;;;;;5097791;28;20204;-84
2021/06/20 03:10:08;;;;;;;1.80;1.27;;;15.30;99.90;;;;;;5109647;28;20188;-82
2021/06/20 03:12:35;;;;;;;4.73;1.40;;;15.30;99.90;;;;;;5109290;28;20204;-82
2021/06/20 03:15:04;;;;;;;1.13;1.03;;;15.30;99.90;;;;;;5109104;28;20200;-86
2021/06/20 03:17:31;;;;;;;2.10;1.27;;;15.20;99.90;;;;;;5109799;28;20252;-84
2021/06/20 03:19:59;;;;;;;1.83;1.23;;;15.20;99.90;;;;;;5110504;28;20295;-82
2021/06/20 03:22:26;;;;;;;2.57;1.23;;;15.30;99.90;;;;;;5111138;28;20246;-85
2021/06/20 03:24:54;;;;;;;1.20;1.10;;;15.30;99.90;;;;;;5110075;28;20488;-85
2021/06/20 03:27:22;;;;;;;2.03;1.33;;;15.30;99.90;;;;;;5110554;28;20211;-84
2021/06/20 03:29:50;;;;;;;1.50;1.17;;;15.20;99.90;;;;;;5111264;28;20731;-81
2021/06/20 03:32:18;;;;;;;1.63;1.00;;;15.20;99.90;;;;;;5110418;28;20204;-81
2021/06/20 03:34:45;;;;;;;2.43;1.37;;;15.20;99.90;;;;;;5109569;28;20790;-83
2021/06/20 03:37:12;;;;;;;1.53;1.40;;;15.20;99.90;;;;;;5096776;28;20204;-82
2021/06/20 03:39:42;;;;;;;9.90;2.00;;;15.20;99.90;;;;;;5096233;28;20242;-85
2021/06/20 03:42:11;;;;;;;2.55;1.20;;;15.20;99.90;;;;;;5109712;28;20949;-81
2021/06/20 03:44:37;;;;;;;2.90;1.03;;;15.10;99.90;;;;;;5109101;28;20208;-81
2021/06/20 03:47:04;;;;;;;2.50;1.40;;;15.10;99.90;;;;;;5108910;28;20222;-82
2021/06/20 03:49:34;;;;;;;4.30;1.33;;;15.10;99.90;;;;;;5109728;28;20608;-82
2021/06/20 03:52:01;;;;;;;1.37;1.00;;;15.10;99.90;;;;;;5108281;28;20618;-84
2021/06/20 03:54:28;;;;;;;1.30;1.10;;;15.10;99.90;;;;;;5103038;28;20196;-81
2021/06/20 03:56:55;;;;;;;1.47;1.27;;;15.10;99.90;;;;;;5088980;28;20220;-81
2021/06/20 03:59:25;;;;;;;1.97;1.37;;;15.10;99.90;;;;;;5088474;28;20196;-84
2021/06/20 04:01:52;;;;;;;3.73;1.47;;;15.10;99.90;;;;;;5095194;28;20267;-83
2021/06/20 04:04:19;;;;;;;1.80;1.43;;;15.10;99.90;;;;;;5109526;28;20211;-83
2021/06/20 04:06:46;;;;;;;1.27;1.03;;;15.10;99.90;;;;;;5092630;28;20643;-81
2021/06/20 04:09:13;;;;;;;1.40;1.20;;;15.00;99.90;;;;;;5090604;28;20197;-80
2021/06/20 04:11:40;;;;;;;1.57;1.30;;;15.10;99.90;;;;;;5109568;28;20195;-84
2021/06/20 04:14:06;;;;;;;2.20;1.50;;;15.10;99.90;;;;;;5107689;28;20419;-79
2021/06/20 04:16:34;;;;;;;3.13;1.60;;;15.10;99.90;;;;;;5109150;28;20618;-83
2021/06/20 04:19:01;;;;;;;3.33;1.77;;;15.10;99.90;;;;;;5100743;28;20213;-80
2021/06/20 04:21:34;;;;;;;4.17;1.90;;;15.10;99.90;;;;;;5088359;28;20216;-82
2021/06/20 04:24:00;;;;;;;2.63;1.70;;;15.20;99.90;;;;;;5089504;28;20185;-82
2021/06/20 04:26:28;;;;;;;3.53;1.70;;;15.30;99.90;;;;;;5106983;28;20204;-81
2021/06/20 04:28:54;;;;;;;1.80;1.40;;;15.30;99.90;;;;;;5108685;28;20218;-82
2021/06/20 04:31:21;;;;;;;2.05;1.55;;;15.30;99.90;;;;;;5109329;28;20200;-83
2021/06/20 04:33:49;;;;;;;1.52;1.40;;;15.30;99.90;;;;;;5106833;28;20208;-82
2021/06/20 04:36:17;;;;;;;3.50;2.00;;;15.40;99.90;;;;;;5089105;28;20193;-83
2021/06/20 04:38:45;;;;;;;3.93;1.73;;;15.40;99.90;;;;;;5089030;28;20530;-81
2021/06/20 04:41:14;;;;;;;1.85;1.50;;;15.50;99.90;;;;;;5090055;28;20228;-80
2021/06/20 04:43:55;;;;;;;3.57;1.90;;;15.50;99.90;;;;;;5108559;28;20199;-81
2021/06/20 04:46:24;;;;;;;3.70;1.77;;;15.50;99.90;;;;;;5103378;28;20204;-81
2021/06/20 04:48:54;;;;;;;2.80;2.00;;;15.50;99.90;;;;;;5089609;28;20203;-82
2021/06/20 04:51:21;;;;;;;3.55;1.40;;;15.50;99.90;;;;;;5090882;28;20188;-84
2021/06/20 04:53:48;;;;;;;1.80;1.35;;;15.50;99.90;;;;;;5090349;28;20207;-83
2021/06/20 04:56:15;;;;;;;2.23;1.63;;;15.60;99.90;;;;;;5089132;28;20220;-86
2021/06/20 04:58:42;;;;;;;2.75;1.80;;;15.70;99.90;;;;;;5091072;28;20299;-84
2021/06/20 05:01:09;;;;;;;2.27;1.77;;;15.70;99.90;;;;;;5110098;28;20224;-77
2021/06/20 05:03:36;;;;;;;2.88;1.60;;;15.90;99.90;;;;;;5110277;28;20195;-81
2021/06/20 05:06:07;;;;;;;3.28;1.85;;;15.90;99.90;;;;;;5109675;28;20207;-85
2021/06/20 05:08:33;;;;;;;1.77;1.43;;;16.00;99.90;;;;;;5110494;28;20191;-86
2021/06/20 05:11:00;;;;;;;2.13;1.55;;;16.10;99.90;;;;;;5109933;28;20199;-84
2021/06/20 05:13:27;;;;;;;2.25;1.65;;;16.20;99.90;;;;;;5109930;28;20877;-78
2021/06/20 05:15:54;;;;;;;2.15;1.88;;;16.30;99.90;;;;;;5109303;28;20240;-84
2021/06/20 05:18:21;;;;;;;2.05;1.85;;;16.40;99.90;;;;;;5109546;28;20188;-85
2021/06/20 05:20:48;;;;;;;2.95;1.95;;;16.50;99.90;;;;;;5109440;28;20191;-83
2021/06/20 05:23:16;;;;;;;2.65;1.50;;;16.60;99.90;;;;;;5108999;28;20239;-84
2021/06/20 05:25:43;;;;;;;2.53;1.67;;;16.70;99.90;;;;;;5108710;28;20211;-83
2021/06/20 05:28:10;;;;;;;2.25;1.75;;;16.90;99.90;;;;;;5108516;28;20211;-83
2021/06/20 05:30:37;;;;;;;2.60;1.63;;;17.10;99.90;;;;;;5107872;28;20210;-81
2021/06/20 05:33:04;;;;;;;2.22;1.63;;;17.20;99.90;;;;;;5109353;28;20199;-80
2021/06/20 05:35:30;;;;;;;3.40;1.65;;;17.30;99.90;;;;;;5106015;28;20199;-81
2021/06/20 05:37:57;;;;;;;2.65;1.50;;;17.40;99.90;;;;;;5104125;28;20329;-81
2021/06/20 05:40:26;;;;;;;5.93;1.88;;;17.50;99.90;;;;;;5103388;28;20207;-78
2021/06/20 05:42:53;;;;;;;3.53;1.60;;;17.40;99.90;;;;;;5103825;28;20228;-78
2021/06/20 05:45:19;;;;;;;2.45;1.40;;;17.40;99.90;;;;;;5103716;28;20214;-79
2021/06/20 05:47:46;;;;;;;1.92;1.20;;;17.30;99.90;;;;;;5103459;28;20212;-78
2021/06/20 05:50:13;;;;;;;1.52;1.27;;;17.30;99.90;;;;;;5100516;28;20200;-77
2021/06/20 05:52:40;;;;;;;0.90;0.80;;;17.20;99.90;;;;;;5103296;28;20542;-81
2021/06/20 05:55:08;;;;;;;3.05;1.23;;;17.30;99.90;;;;;;5106540;28;20219;-77
2021/06/20 05:57:37;;;;;;;2.83;1.42;;;17.30;99.90;;;;;;5107228;28;20200;-77
2021/06/20 06:00:06;;;;;;;1.63;1.52;;;17.40;99.90;;;;;;5105523;28;20191;-78
2021/06/20 06:02:33;;;;;;;2.25;1.20;;;17.80;99.90;;;;;;5106512;28;20219;-80
2021/06/20 06:05:00;;;;;;;1.88;1.30;;;18.30;99.90;;;;;;5098495;28;20207;-78
2021/06/20 06:07:26;;;;;;;2.08;1.20;;;18.70;99.90;;;;;;5084534;28;20212;-78
2021/06/20 06:09:54;;;;;;;1.70;1.17;;;19.10;99.90;;;;;;5087660;28;20224;-77
2021/06/20 06:12:23;;;;;;;2.58;1.10;;;19.40;99.90;;;;;;5085932;28;20223;-76
2021/06/20 06:14:53;;;;;;;2.38;1.45;;;19.80;99.90;;;;;;5100015;28;20287;-77
2021/06/20 06:17:21;;;;;;;2.10;1.27;;;20.30;99.90;;;;;;5107130;28;20780;-79
2021/06/20 06:19:48;;;;;;;1.35;0.95;;;20.70;99.90;;;;;;5088607;28;20204;-79
2021/06/20 06:22:16;;;;;;;2.30;1.05;;;21.10;99.90;;;;;;5088516;28;20220;-78
2021/06/20 06:24:43;;;;;;;1.17;0.98;;;21.10;99.90;;;;;;5107265;28;20222;-79
2021/06/20 06:27:10;;;;;;;2.92;1.08;;;21.20;99.90;;;;;;5106620;28;20227;-81
2021/06/20 06:29:37;;;;;;;2.67;1.00;;;21.30;99.90;;;;;;5107804;28;20204;-78
2021/06/20 06:32:06;;;;;;;1.52;0.80;;;21.20;99.90;;;;;;5107127;28;20204;-78
2021/06/20 06:34:33;;;;;;;1.98;1.05;;;21.40;99.90;;;;;;5086403;28;20203;-75
2021/06/20 06:37:00;;;;;;;2.72;1.10;;;21.50;99.90;;;;;;5087171;28;20200;-77
2021/06/20 06:39:27;;;;;;;1.08;0.80;;;21.40;99.90;;;;;;5086973;28;20519;-77
2021/06/20 06:41:54;;;;;;;3.15;1.35;;;21.30;99.90;;;;;;5102950;28;20223;-79
2021/06/20 06:44:22;;;;;;;1.80;1.00;;;21.20;99.90;;;;;;5106787;28;20200;-78
2021/06/20 06:46:49;;;;;;;2.92;1.73;;;21.10;99.90;;;;;;5107599;28;20204;-80
2021/06/20 06:49:18;;;;;;;1.55;0.90;;;21.00;99.90;;;;;;5106208;28;20222;-79
2021/06/20 06:51:46;;;;;;;2.50;1.30;;;20.90;99.90;;;;;;5107361;28;20200;-79
2021/06/20 06:54:13;;;;;;;3.85;1.30;;;20.90;99.90;;;;;;5105449;28;20220;-78
2021/06/20 06:56:39;;;;;;;0.98;0.75;;;20.70;99.90;;;;;;5085976;28;20652;-79
2021/06/20 06:59:06;;;;;;;0.90;0.90;;;20.50;99.90;;;;;;5087260;28;20208;-83
2021/06/20 07:01:33;;;;;;;1.65;1.10;;;20.80;99.90;;;;;;5086696;28;20905;-77
2021/06/20 07:04:00;;;;;;;1.45;1.23;;;21.30;99.90;;;;;;5088562;28;20891;-79
2021/06/20 07:06:28;;;;;;;1.80;1.02;;;21.70;99.90;;;;;;5087301;28;20201;-78
2021/06/20 07:08:55;;;;;;;2.10;0.90;;;21.70;99.90;;;;;;5087447;28;20193;-80
2021/06/20 07:11:23;;;;;;;1.95;1.08;;;22.10;99.90;;;;;;5057794;28;20489;-80
2021/06/20 07:13:50;;;;;;;1.70;0.95;;;22.50;99.90;;;;;;5089473;28;20219;-84
2021/06/20 07:16:17;;;;;;;2.35;1.20;;;22.60;99.90;;;;;;5086748;28;20579;-76
2021/06/20 07:18:44;;;;;;;2.60;1.48;;;22.50;99.90;;;;;;5087917;28;20878;-77
2021/06/20 07:21:11;;;;;;;4.47;2.22;;;22.40;99.90;;;;;;5088686;28;20211;-83
2021/06/20 07:23:39;;;;;;;5.28;2.97;;;22.20;99.90;;;;;;5105320;28;20228;-82
2021/06/20 07:26:06;;;;;;;3.88;2.60;;;22.00;99.90;;;;;;5107611;28;20203;-82
2021/06/20 07:28:33;;;;;;;3.67;1.52;;;21.70;99.90;;;;;;5096826;28;20219;-85
2021/06/20 07:30:59;;;;;;;3.05;1.88;;;21.40;99.90;;;;;;5090849;28;20200;-82
2021/06/20 07:33:26;;;;;;;8.52;2.60;;;21.10;99.90;;;;;;5108302;28;20634;-74
2021/06/20 07:35:53;;;;;;;2.42;1.58;;;20.80;99.90;;;;;;5109681;28;20208;-77
2021/06/20 07:38:20;;;;;;;6.75;2.75;;;20.60;99.90;;;;;;5108130;28;20384;-76
2021/06/20 07:40:48;;;;;;;5.00;2.95;;;20.50;99.90;;;;;;5109263;28;20216;-76
2021/06/20 07:43:15;;;;;;;2.47;1.80;;;20.40;99.90;;;;;;5092845;28;20247;-83
2021/06/20 07:45:42;;;;;;;4.13;1.52;;;20.60;99.90;;;;;;5087881;28;20192;-80
2021/06/20 07:48:10;;;;;;;4.50;1.95;;;21.00;99.90;;;;;;5087288;28;20204;-77
2021/06/20 07:50:38;;;;;;;3.35;1.83;;;21.60;99.90;;;;;;5088332;28;20304;-85
2021/06/20 07:53:06;;;;;;;4.03;1.85;;;22.00;99.90;;;;;;5088534;28;20196;-82
2021/06/20 07:55:34;;;;;;;2.88;1.80;;;22.30;99.90;;;;;;5087817;28;20239;-77
2021/06/20 07:58:02;;;;;;;8.63;3.30;;;22.50;99.90;;;;;;5088932;28;20208;-79
2021/06/20 08:00:28;;;;;;;5.25;2.40;;;22.50;99.90;;;;;;5105084;27;20585;-78
2021/06/20 08:02:55;;;;;;;4.93;1.90;;;22.40;99.90;;;;;;5109256;28;20224;-82
2021/06/20 08:05:22;;;;;;;3.35;1.98;;;22.40;99.90;;;;;;5108338;28;20196;-83
2021/06/20 08:07:49;;;;;;;2.78;1.42;;;22.30;99.90;;;;;;5107955;28;20666;-81
2021/06/20 08:10:16;;;;;;;2.67;1.20;;;22.30;99.90;;;;;;5109210;28;20200;-83
2021/06/20 08:12:43;;;;;;;1.40;1.10;;;22.60;99.90;;;;;;5100578;28;20215;-79
2021/06/20 08:15:13;;;;;;;2.15;1.10;;;22.50;99.90;;;;;;5088783;28;20204;-84
2021/06/20 08:17:41;;;;;;;3.95;1.10;;;22.30;99.90;;;;;;5088028;28;20204;-78
2021/06/20 08:20:11;;;;;;;2.17;1.15;;;22.20;99.90;;;;;;5106682;28;20216;-84
2021/06/20 08:22:38;;;;;;;2.95;1.08;;;21.90;99.90;;;;;;5108552;28;20623;-78
2021/06/20 08:25:06;;;;;;;2.53;0.98;;;21.60;99.90;;;;;;5108931;28;20196;-77
2021/06/20 08:27:33;;;;;;;2.60;1.40;;;21.70;99.90;;;;;;5107709;27;20243;-78
2021/06/20 08:30:00;;;;;;;3.70;1.05;;;21.70;99.90;;;;;;5107437;28;20196;-81
2021/06/20 08:32:30;;;;;;;4.10;1.40;;;21.50;99.90;;;;;;5109568;28;20201;-86
2021/06/20 08:34:57;;;;;;;3.03;1.08;;;21.40;99.90;;;;;;5109055;28;20214;-80
2021/06/20 08:37:24;;;;;;;6.40;1.38;;;21.20;99.90;;;;;;5108925;28;20195;-85
2021/06/20 08:39:51;;;;;;;3.28;1.10;;;21.10;99.90;;;;;;5107984;28;20236;-81
2021/06/20 08:42:18;;;;;;;4.25;1.05;;;21.10;99.90;;;;;;5108252;28;20202;-83
2021/06/20 08:44:44;;;;;;;4.38;1.50;;;21.10;99.90;;;;;;5096030;28;20201;-80
2021/06/20 08:47:13;;;;;;;3.58;1.38;;;21.20;99.90;;;;;;5087262;28;20243;-80
2021/06/20 08:49:43;;;;;;;4.95;1.65;;;21.00;99.90;;;;;;5093888;28;20215;-82
2021/06/20 08:52:09;;;;;;;2.22;1.10;;;20.90;99.90;;;;;;5106642;28;20227;-83
2021/06/20 08:54:37;;;;;;;4.57;1.42;;;20.90;99.90;;;;;;5106794;28;20199;-82
2021/06/20 08:57:06;;;;;;;3.55;1.40;;;20.90;99.90;;;;;;5105421;28;20608;-80
2021/06/20 08:59:33;;;;;;;5.43;1.67;;;21.00;99.90;;;;;;5106374;28;20196;-79
2021/06/20 09:02:01;;;;;;;2.78;1.30;;;21.00;99.90;;;;;;5088923;28;20231;-80
2021/06/20 09:04:30;;;;;;;5.32;1.75;;;21.20;99.90;;;;;;5085382;28;20216;-78
2021/06/20 09:07:01;;;;;;;5.38;1.23;;;21.30;99.90;;;;;;5085360;28;20312;-80
2021/06/20 09:09:29;;;;;;;5.97;1.77;;;21.30;99.90;;;;;;5092079;28;20743;-80
2021/06/20 09:12:10;;;;;;;3.30;1.58;;;21.40;99.90;;;;;;5105029;28;20192;-79
2021/06/20 09:14:44;;;;;;;6.15;1.67;;;21.40;99.90;;;;;;5084657;28;20189;-81
2021/06/20 09:17:11;;;;;;;3.90;1.67;;;21.50;99.90;;;;;;5095983;28;20375;-80
2021/06/20 09:19:38;;;;;;;3.15;1.20;;;21.70;99.90;;;;;;5104071;28;20195;-80
2021/06/20 09:22:09;;;;;;;3.92;1.65;;;21.80;99.90;;;;;;5083424;28;20312;-80
2021/06/20 09:24:38;;;;;;;2.80;1.52;;;21.80;99.90;;;;;;5082677;28;20518;-80
2021/06/20 09:27:06;;;;;;;2.90;1.40;;;21.90;99.90;;;;;;5096145;28;20212;-82
2021/06/20 09:29:34;;;;;;;3.28;1.60;;;22.00;99.90;;;;;;5105077;28;20223;-83
2021/06/20 09:32:06;;;;;;;4.10;2.03;;;22.10;99.90;;;;;;5106046;28;20327;-81
2021/06/20 09:34:42;;;;;;;3.97;1.85;;;22.00;99.90;;;;;;5100468;28;20192;-84
2021/06/20 09:37:13;;;;;;;5.75;1.83;;;21.90;99.90;;;;;;5085444;28;20638;-85
2021/06/20 09:39:40;;;;;;;4.78;1.65;;;21.90;99.90;;;;;;5086050;28;20647;-84
2021/06/20 09:42:10;;;;;;;3.70;1.50;;;21.80;99.90;;;;;;5086650;28;20207;-83
2021/06/20 09:44:39;;;;;;;4.32;1.63;;;21.70;99.90;;;;;;5086853;28;20524;-80
2021/06/20 09:47:07;;;;;;;7.35;1.90;;;21.50;99.90;;;;;;5106949;28;20618;-83
2021/06/20 09:49:34;;;;;;;3.67;1.77;;;21.40;99.90;;;;;;5106797;28;20240;-83
2021/06/20 09:52:01;;;;;;;5.85;1.77;;;21.20;99.90;;;;;;5104696;28;20199;-83
2021/06/20 09:54:34;;;;;;;3.33;1.92;;;21.00;99.90;;;;;;5105082;28;20192;-83
2021/06/20 09:57:01;;;;;;;6.32;2.13;;;20.80;99.90;;;;;;5085300;28;20236;-83
2021/06/20 09:59:31;;;;;;;5.32;1.80;;;20.70;99.90;;;;;;5092010;28;20211;-81
2021/06/20 10:02:08;;;;;;;6.53;2.70;;;20.60;99.90;;;;;;5103958;28;20200;-83
2021/06/20 10:04:37;;;;;;;7.15;2.20;;;20.40;99.90;;;;;;5104965;28;20304;-83
2021/06/20 10:07:05;;;;;;;8.27;2.28;;;20.30;99.90;;;;;;5084835;28;20520;-81
2021/06/20 10:09:34;;;;;;;6.70;2.20;;;20.30;99.90;;;;;;5085684;28;20216;-83
2021/06/20 10:12:02;;;;;;;6.18;2.17;;;20.20;99.90;;;;;;5084222;28;20201;-81
2021/06/20 10:14:30;;;;;;;9.45;2.53;;;20.20;99.90;;;;;;5093338;28;20208;-80
2021/06/20 10:17:01;;;;;;;8.57;2.75;;;20.10;99.90;;;;;;5105799;28;20230;-79
2021/06/20 10:19:30;;;;;;;6.72;2.78;;;20.10;99.90;;;;;;5089752;28;20284;-83
2021/06/20 10:22:02;;;;;;;6.93;2.67;;;20.20;99.90;;;;;;5084999;28;20208;-84
2021/06/20 10:24:29;;;;;;;6.90;3.38;;;20.10;99.90;;;;;;5100509;28;20665;-79
2021/06/20 10:27:03;;;;;;;5.35;2.40;;;20.10;99.90;;;;;;5104696;28;20188;-85
2021/06/20 10:29:34;;;;;;;5.82;2.67;;;20.10;99.90;;;;;;5105625;28;20631;-83
2021/06/20 10:32:17;;;;;;;9.00;3.25;;;19.90;99.90;;;;;;5104972;28;20207;-84
2021/06/20 10:34:53;;;;;;;4.15;2.63;;;19.90;99.90;;;;;;5105178;28;20204;-81
2021/06/20 10:37:22;;;;;;;6.95;2.50;;;20.00;99.90;;;;;;5104542;28;20235;-83
2021/06/20 10:39:50;;;;;;;11.48;2.90;;;20.00;99.90;;;;;;5104253;28;20248;-83
2021/06/20 10:42:18;;;;;;;6.47;2.25;;;20.00;99.90;;;;;;5088207;28;20500;-82
2021/06/20 10:44:49;;;;;;;9.18;3.22;;;20.00;99.90;;;;;;5087174;28;20229;-81
2021/06/20 10:47:27;;;;;;;5.53;2.38;;;20.10;99.90;;;;;;5087944;28;20623;-82
2021/06/20 10:49:56;;;;;;;6.78;2.60;;;20.40;99.90;;;;;;5087486;28;20792;-81
2021/06/20 10:52:23;;;;;;;5.88;3.17;;;20.60;99.90;;;;;;5086645;28;20324;-81
2021/06/20 10:54:52;;;;;;;9.45;2.70;;;21.10;99.90;;;;;;5085765;28;20204;-81
2021/06/20 10:57:28;;;;;;;7.47;2.42;;;21.60;99.90;;;;;;5087612;28;20230;-80
2021/06/20 10:59:57;;;;;;;6.65;2.45;;;22.00;99.90;;;;;;5091611;27;20284;-87
2021/06/20 11:02:25;;;;;;;3.63;2.03;;;22.20;99.90;;;;;;5106548;28;20192;-80
2021/06/20 11:04:52;;;;;;;5.93;2.63;;;22.50;99.90;;;;;;5107083;28;20223;-82
2021/06/20 11:07:27;;;;;;;6.80;2.63;;;22.70;99.90;;;;;;5107702;28;20207;-82
2021/06/20 11:09:54;;;;;;;5.68;2.00;;;23.00;99.90;;;;;;5107889;28;20287;-83
2021/06/20 11:12:22;;;;;;;7.45;2.22;;;23.00;99.90;;;;;;5107526;28;20196;-83
2021/06/20 11:14:50;;;;;;;4.00;2.00;;;23.10;99.90;;;;;;5091865;28;20204;-84
2021/06/20 11:17:18;;;;;;;4.30;2.25;;;23.00;99.90;;;;;;5088774;27;20307;-86
2021/06/20 11:19:45;;;;;;;6.60;2.58;;;23.10;99.90;;;;;;5108444;28;20207;-81
2021/06/20 11:22:15;;;;;;;6.45;2.50;;;23.20;99.90;;;;;;5106857;28;20202;-80
2021/06/20 11:24:44;;;;;;;4.82;2.40;;;23.30;99.90;;;;;;5108287;28;20611;-81
2021/06/20 11:27:13;;;;;;;3.72;2.10;;;23.50;99.90;;;;;;5107230;28;20201;-82
2021/06/20 11:29:41;;;;;;;7.40;2.40;;;23.70;99.90;;;;;;5087581;28;20209;-82
2021/06/20 11:32:15;;;;;;;4.60;1.95;;;24.00;99.90;;;;;;5087409;28;20917;-84
2021/06/20 11:34:44;;;;;;;4.28;2.17;;;24.00;99.90;;;;;;5095138;28;20246;-83
2021/06/20 11:37:23;;;;;;;4.22;2.17;;;23.90;99.90;;;;;;5107300;28;20206;-78
2021/06/20 11:39:51;;;;;;;5.45;2.30;;;23.80;99.90;;;;;;5106285;28;20235;-80
2021/06/20 11:42:25;;;;;;;3.00;1.60;;;24.00;99.90;;;;;;5088518;28;20211;-79
2021/06/20 11:44:58;;;;;;;3.95;2.20;;;24.20;99.90;;;;;;5083960;28;20232;-79
2021/06/20 11:47:34;;;;;;;5.15;2.40;;;24.00;99.90;;;;;;5084301;28;20216;-79
2021/06/20 11:50:18;;;;;;;6.40;2.30;;;23.90;99.90;;;;;;5084944;28;20303;-79
2021/06/20 11:52:47;;;;;;;3.70;2.20;;;23.90;99.90;;;;;;5083534;28;20216;-81
2021/06/20 11:55:17;;;;;;;4.85;2.20;;;24.00;99.90;;;;;;5084068;28;20224;-81
2021/06/20 11:57:44;;;;;;;4.07;2.40;;;24.20;99.90;;;;;;5083795;28;20215;-80
2021/06/20 12:00:14;;;;;;;5.30;2.20;;;24.40;99.90;;;;;;5083550;28;20201;-80
2021/06/20 12:02:44;;;;;;;6.43;2.17;;;24.60;99.90;;;;;;5083749;28;20208;-79
2021/06/20 12:05:15;;;;;;;7.20;2.40;;;24.80;99.90;;;;;;5083398;28;20228;-78
2021/06/20 12:07:43;;;;;;;6.85;2.20;;;25.00;99.90;;;;;;5084645;28;20201;-77
2021/06/20 12:10:13;;;;;;;5.47;2.03;;;24.80;99.90;;;;;;5087051;28;20208;-82
2021/06/20 12:12:41;;;;;;;7.75;2.40;;;24.90;99.90;;;;;;5103200;28;20713;-79
2021/06/20 12:15:09;;;;;;;4.03;2.53;;;24.90;99.90;;;;;;5103528;28;20214;-81
2021/06/20 12:17:38;;;;;;;3.75;2.28;;;24.80;99.90;;;;;;5098793;28;20511;-78
2021/06/20 12:20:08;;;;;;;2.78;2.08;;;24.70;99.90;;;;;;5082330;28;20239;-80
2021/06/20 12:22:45;;;;;;;3.08;2.00;;;24.80;99.90;;;;;;5083948;28;20492;-79
2021/06/20 12:25:12;;;;;;;3.10;1.67;;;24.30;99.90;;;;;;5104128;28;20215;-78
2021/06/20 12:27:39;;;;;;;4.60;2.03;;;24.30;99.90;;;;;;5102734;28;20200;-80
2021/06/20 12:30:15;;;;;;;4.70;2.00;;;24.30;99.90;;;;;;5103451;28;20207;-80
2021/06/20 12:32:42;;;;;;;3.13;1.90;;;24.30;99.90;;;;;;5103922;28;20301;-79
2021/06/20 12:35:19;;;;;;;3.15;2.05;;;24.50;99.90;;;;;;5089390;28;20467;-77
2021/06/20 12:37:46;;;;;;;2.10;1.67;;;24.60;99.90;;;;;;5083249;28;20299;-80
2021/06/20 12:40:15;;;;;;;3.60;1.70;;;25.00;99.90;;;;;;5083707;28;20211;-80
2021/06/20 12:42:47;;;;;;;1.83;1.60;;;25.10;99.90;;;;;;5100034;28;20208;-77
2021/06/20 12:45:23;;;;;;;3.28;1.63;;;25.10;99.90;;;;;;5103807;28;20220;-82
2021/06/20 12:47:50;;;;;;;4.15;1.88;;;25.10;99.90;;;;;;5087815;28;20210;-83
2021/06/20 12:50:28;;;;;;;3.42;1.90;;;25.10;99.90;;;;;;5092530;28;20244;-83